sensor_id;sensor_type;location;lat;lon;timestamp;P1;durP1;ratioP1;P2;durP2;ratioP2
58760;SDS011;44529;47.464;19.014;2022-07-25T00:01:46;4.50;;;4.10;;
58760;SDS011;44529;47.464;19.014;2022-07-25T00:04:48;5.82;;;4.70;;
58760;SDS011;44529;47.464;19.014;2022-07-25T00:07:51;6.15;;;4.22;;
58760;SDS011;44529;47.464;19.014;2022-07-25T00:10:53;5.00;;;3.95;;
58760;SDS011;44529;47.464;19.014;2022-07-25T00:13:55;8.10;;;3.90;;
58760;SDS011;44529;47.464;19.014;2022-07-25T00:16:58;5.18;;;4.10;;
58760;SDS011;44529;47.464;19.014;2022-07-25T00:20:00;5.97;;;3.97;;
58760;SDS011;44529;47.464;19.014;2022-07-25T00:23:03;4.45;;;4.05;;
58760;SDS011;44529;47.464;19.014;2022-07-25T00:26:05;3.72;;;3.42;;
58760;SDS011;44529;47.464;19.014;2022-07-25T00:29:07;4.53;;;4.10;;
58760;SDS011;44529;47.464;19.014;2022-07-25T00:32:10;4.53;;;3.90;;
58760;SDS011;44529;47.464;19.014;2022-07-25T00:35:12;4.12;;;3.83;;
58760;SDS011;44529;47.464;19.014;2022-07-25T00:38:14;4.55;;;4.15;;
58760;SDS011;44529;47.464;19.014;2022-07-25T00:41:17;4.37;;;3.97;;
58760;SDS011;44529;47.464;19.014;2022-07-25T00:47:25;4.12;;;3.80;;
58760;SDS011;44529;47.464;19.014;2022-07-25T00:50:28;4.10;;;3.70;;
58760;SDS011;44529;47.464;19.014;2022-07-25T00:53:30;4.25;;;3.92;;
58760;SDS011;44529;47.464;19.014;2022-07-25T00:56:33;3.87;;;3.58;;
58760;SDS011;44529;47.464;19.014;2022-07-25T00:59:35;3.75;;;3.45;;
58760;SDS011;44529;47.464;19.014;2022-07-25T01:02:38;3.50;;;3.22;;
58760;SDS011;44529;47.464;19.014;2022-07-25T01:05:40;3.90;;;3.60;;
58760;SDS011;44529;47.464;19.014;2022-07-25T01:08:43;5.62;;;3.55;;
58760;SDS011;44529;47.464;19.014;2022-07-25T01:11:46;5.57;;;4.15;;
58760;SDS011;44529;47.464;19.014;2022-07-25T01:14:48;5.45;;;3.67;;
58760;SDS011;44529;47.464;19.014;2022-07-25T01:17:50;4.40;;;4.10;;
58760;SDS011;44529;47.464;19.014;2022-07-25T01:20:52;4.37;;;3.72;;
58760;SDS011;44529;47.464;19.014;2022-07-25T01:23:55;4.97;;;3.75;;
58760;SDS011;44529;47.464;19.014;2022-07-25T01:26:57;4.53;;;3.83;;
58760;SDS011;44529;47.464;19.014;2022-07-25T01:29:59;3.97;;;3.50;;
58760;SDS011;44529;47.464;19.014;2022-07-25T01:33:02;4.30;;;3.90;;
58760;SDS011;44529;47.464;19.014;2022-07-25T01:36:08;4.05;;;3.70;;
58760;SDS011;44529;47.464;19.014;2022-07-25T01:39:10;4.40;;;3.80;;
58760;SDS011;44529;47.464;19.014;2022-07-25T01:42:13;5.72;;;3.80;;
58760;SDS011;44529;47.464;19.014;2022-07-25T01:45:15;4.87;;;3.60;;
58760;SDS011;44529;47.464;19.014;2022-07-25T01:48:17;4.20;;;3.80;;
58760;SDS011;44529;47.464;19.014;2022-07-25T01:51:20;5.07;;;3.97;;
58760;SDS011;44529;47.464;19.014;2022-07-25T01:54:23;3.90;;;3.60;;
58760;SDS011;44529;47.464;19.014;2022-07-25T01:57:25;4.75;;;4.00;;
58760;SDS011;44529;47.464;19.014;2022-07-25T02:00:32;4.62;;;4.00;;
58760;SDS011;44529;47.464;19.014;2022-07-25T02:03:34;7.22;;;4.22;;
58760;SDS011;44529;47.464;19.014;2022-07-25T02:06:36;4.57;;;4.18;;
58760;SDS011;44529;47.464;19.014;2022-07-25T02:09:39;4.65;;;4.25;;
58760;SDS011;44529;47.464;19.014;2022-07-25T02:12:42;4.60;;;3.75;;
58760;SDS011;44529;47.464;19.014;2022-07-25T02:15:44;4.25;;;3.92;;
58760;SDS011;44529;47.464;19.014;2022-07-25T02:18:46;4.37;;;4.05;;
58760;SDS011;44529;47.464;19.014;2022-07-25T02:21:49;6.18;;;4.43;;
58760;SDS011;44529;47.464;19.014;2022-07-25T02:24:51;5.15;;;4.20;;
58760;SDS011;44529;47.464;19.014;2022-07-25T02:27:54;4.65;;;4.22;;
58760;SDS011;44529;47.464;19.014;2022-07-25T02:30:56;6.78;;;4.10;;
58760;SDS011;44529;47.464;19.014;2022-07-25T02:33:59;4.62;;;4.30;;
58760;SDS011;44529;47.464;19.014;2022-07-25T02:37:01;5.87;;;3.97;;
58760;SDS011;44529;47.464;19.014;2022-07-25T02:40:04;5.07;;;4.07;;
58760;SDS011;44529;47.464;19.014;2022-07-25T02:43:06;6.68;;;4.75;;
58760;SDS011;44529;47.464;19.014;2022-07-25T02:46:09;4.70;;;4.30;;
58760;SDS011;44529;47.464;19.014;2022-07-25T02:49:11;6.37;;;4.35;;
58760;SDS011;44529;47.464;19.014;2022-07-25T02:52:13;5.15;;;4.62;;
58760;SDS011;44529;47.464;19.014;2022-07-25T02:55:15;7.47;;;4.22;;
58760;SDS011;44529;47.464;19.014;2022-07-25T02:58:18;4.72;;;4.32;;
58760;SDS011;44529;47.464;19.014;2022-07-25T03:01:20;4.50;;;4.10;;
58760;SDS011;44529;47.464;19.014;2022-07-25T03:04:23;5.00;;;4.50;;
58760;SDS011;44529;47.464;19.014;2022-07-25T03:07:25;6.07;;;4.62;;
58760;SDS011;44529;47.464;19.014;2022-07-25T03:10:27;5.75;;;4.18;;
58760;SDS011;44529;47.464;19.014;2022-07-25T03:13:31;5.28;;;4.45;;
58760;SDS011;44529;47.464;19.014;2022-07-25T03:16:34;5.07;;;4.57;;
58760;SDS011;44529;47.464;19.014;2022-07-25T03:19:37;6.28;;;4.40;;
58760;SDS011;44529;47.464;19.014;2022-07-25T03:22:40;4.50;;;4.05;;
58760;SDS011;44529;47.464;19.014;2022-07-25T03:25:42;6.68;;;5.05;;
58760;SDS011;44529;47.464;19.014;2022-07-25T03:28:44;6.20;;;4.70;;
58760;SDS011;44529;47.464;19.014;2022-07-25T03:31:46;4.40;;;4.10;;
58760;SDS011;44529;47.464;19.014;2022-07-25T03:34:49;4.60;;;4.20;;
58760;SDS011;44529;47.464;19.014;2022-07-25T03:37:52;4.75;;;4.22;;
58760;SDS011;44529;47.464;19.014;2022-07-25T03:40:54;5.28;;;4.40;;
58760;SDS011;44529;47.464;19.014;2022-07-25T03:43:56;5.00;;;4.28;;
58760;SDS011;44529;47.464;19.014;2022-07-25T03:46:59;5.43;;;4.10;;
58760;SDS011;44529;47.464;19.014;2022-07-25T03:50:01;6.07;;;4.22;;
58760;SDS011;44529;47.464;19.014;2022-07-25T03:53:03;5.15;;;4.30;;
58760;SDS011;44529;47.464;19.014;2022-07-25T03:56:06;7.82;;;4.53;;
58760;SDS011;44529;47.464;19.014;2022-07-25T03:59:08;8.43;;;4.65;;
58760;SDS011;44529;47.464;19.014;2022-07-25T04:02:12;5.50;;;4.43;;
58760;SDS011;44529;47.464;19.014;2022-07-25T04:05:14;6.18;;;4.45;;
58760;SDS011;44529;47.464;19.014;2022-07-25T04:08:16;5.32;;;4.45;;
58760;SDS011;44529;47.464;19.014;2022-07-25T04:11:19;5.28;;;4.10;;
58760;SDS011;44529;47.464;19.014;2022-07-25T04:14:21;4.78;;;4.30;;
58760;SDS011;44529;47.464;19.014;2022-07-25T04:17:24;7.70;;;4.53;;
58760;SDS011;44529;47.464;19.014;2022-07-25T04:20:26;7.07;;;4.55;;
58760;SDS011;44529;47.464;19.014;2022-07-25T04:23:30;10.23;;;4.90;;
58760;SDS011;44529;47.464;19.014;2022-07-25T04:26:32;4.85;;;4.28;;
58760;SDS011;44529;47.464;19.014;2022-07-25T04:29:35;7.30;;;4.50;;
58760;SDS011;44529;47.464;19.014;2022-07-25T04:32:37;6.30;;;4.60;;
58760;SDS011;44529;47.464;19.014;2022-07-25T04:35:39;4.72;;;4.22;;
58760;SDS011;44529;47.464;19.014;2022-07-25T04:38:41;10.80;;;4.50;;
58760;SDS011;44529;47.464;19.014;2022-07-25T04:41:44;7.20;;;4.80;;
58760;SDS011;44529;47.464;19.014;2022-07-25T04:44:46;8.13;;;4.50;;
58760;SDS011;44529;47.464;19.014;2022-07-25T04:47:48;9.02;;;4.55;;
58760;SDS011;44529;47.464;19.014;2022-07-25T04:50:51;4.90;;;4.50;;
58760;SDS011;44529;47.464;19.014;2022-07-25T04:53:53;6.93;;;4.37;;
58760;SDS011;44529;47.464;19.014;2022-07-25T04:56:55;4.95;;;4.45;;
58760;SDS011;44529;47.464;19.014;2022-07-25T04:59:58;5.80;;;4.60;;
58760;SDS011;44529;47.464;19.014;2022-07-25T05:03:00;5.45;;;4.95;;
58760;SDS011;44529;47.464;19.014;2022-07-25T05:06:02;7.35;;;4.30;;
58760;SDS011;44529;47.464;19.014;2022-07-25T05:09:04;6.68;;;4.28;;
58760;SDS011;44529;47.464;19.014;2022-07-25T05:12:07;9.63;;;4.75;;
58760;SDS011;44529;47.464;19.014;2022-07-25T05:15:09;7.25;;;4.87;;
58760;SDS011;44529;47.464;19.014;2022-07-25T05:18:12;4.90;;;4.40;;
58760;SDS011;44529;47.464;19.014;2022-07-25T05:21:14;7.65;;;4.40;;
58760;SDS011;44529;47.464;19.014;2022-07-25T05:24:17;6.70;;;4.70;;
58760;SDS011;44529;47.464;19.014;2022-07-25T05:27:19;7.20;;;4.35;;
58760;SDS011;44529;47.464;19.014;2022-07-25T05:30:21;8.80;;;4.22;;
58760;SDS011;44529;47.464;19.014;2022-07-25T05:33:24;6.55;;;4.18;;
58760;SDS011;44529;47.464;19.014;2022-07-25T05:36:27;6.95;;;4.47;;
58760;SDS011;44529;47.464;19.014;2022-07-25T05:39:29;7.68;;;4.82;;
58760;SDS011;44529;47.464;19.014;2022-07-25T05:42:32;6.93;;;4.55;;
58760;SDS011;44529;47.464;19.014;2022-07-25T05:45:35;6.50;;;4.45;;
58760;SDS011;44529;47.464;19.014;2022-07-25T05:48:38;4.47;;;4.07;;
58760;SDS011;44529;47.464;19.014;2022-07-25T05:51:40;4.47;;;4.07;;
58760;SDS011;44529;47.464;19.014;2022-07-25T05:54:43;6.00;;;4.03;;
58760;SDS011;44529;47.464;19.014;2022-07-25T05:57:45;4.55;;;4.15;;
58760;SDS011;44529;47.464;19.014;2022-07-25T06:00:47;6.55;;;3.90;;
58760;SDS011;44529;47.464;19.014;2022-07-25T06:03:51;5.55;;;3.87;;
58760;SDS011;44529;47.464;19.014;2022-07-25T06:06:54;5.57;;;3.90;;
58760;SDS011;44529;47.464;19.014;2022-07-25T06:09:56;6.20;;;3.90;;
58760;SDS011;44529;47.464;19.014;2022-07-25T06:12:58;5.62;;;3.72;;
58760;SDS011;44529;47.464;19.014;2022-07-25T06:16:01;6.40;;;4.10;;
58760;SDS011;44529;47.464;19.014;2022-07-25T06:19:04;7.72;;;4.10;;
58760;SDS011;44529;47.464;19.014;2022-07-25T06:22:06;4.47;;;3.58;;
58760;SDS011;44529;47.464;19.014;2022-07-25T06:25:10;8.73;;;4.00;;
58760;SDS011;44529;47.464;19.014;2022-07-25T06:28:13;7.93;;;3.90;;
58760;SDS011;44529;47.464;19.014;2022-07-25T06:31:19;4.68;;;4.22;;
58760;SDS011;44529;47.464;19.014;2022-07-25T06:34:21;8.02;;;4.20;;
58760;SDS011;44529;47.464;19.014;2022-07-25T06:37:29;9.73;;;4.40;;
58760;SDS011;44529;47.464;19.014;2022-07-25T06:40:31;8.90;;;4.93;;
58760;SDS011;44529;47.464;19.014;2022-07-25T06:43:33;8.00;;;4.55;;
58760;SDS011;44529;47.464;19.014;2022-07-25T06:46:36;7.18;;;3.95;;
58760;SDS011;44529;47.464;19.014;2022-07-25T06:49:39;4.53;;;3.85;;
58760;SDS011;44529;47.464;19.014;2022-07-25T06:52:43;5.70;;;3.75;;
58760;SDS011;44529;47.464;19.014;2022-07-25T06:55:45;12.60;;;4.10;;
58760;SDS011;44529;47.464;19.014;2022-07-25T06:58:48;4.45;;;3.78;;
58760;SDS011;44529;47.464;19.014;2022-07-25T07:01:50;4.78;;;3.50;;
58760;SDS011;44529;47.464;19.014;2022-07-25T07:04:53;5.03;;;4.15;;
58760;SDS011;44529;47.464;19.014;2022-07-25T07:07:55;9.23;;;4.45;;
58760;SDS011;44529;47.464;19.014;2022-07-25T07:10:58;11.68;;;3.90;;
58760;SDS011;44529;47.464;19.014;2022-07-25T07:14:00;8.88;;;4.22;;
58760;SDS011;44529;47.464;19.014;2022-07-25T07:17:05;5.30;;;3.80;;
58760;SDS011;44529;47.464;19.014;2022-07-25T07:20:07;11.40;;;4.00;;
58760;SDS011;44529;47.464;19.014;2022-07-25T07:23:10;8.82;;;4.37;;
58760;SDS011;44529;47.464;19.014;2022-07-25T07:26:17;9.80;;;4.18;;
58760;SDS011;44529;47.464;19.014;2022-07-25T07:29:20;9.93;;;3.97;;
58760;SDS011;44529;47.464;19.014;2022-07-25T07:32:22;5.70;;;3.92;;
58760;SDS011;44529;47.464;19.014;2022-07-25T07:35:25;22.75;;;5.20;;
58760;SDS011;44529;47.464;19.014;2022-07-25T07:38:28;20.60;;;5.35;;
58760;SDS011;44529;47.464;19.014;2022-07-25T07:41:31;5.47;;;3.58;;
58760;SDS011;44529;47.464;19.014;2022-07-25T07:44:33;16.62;;;5.22;;
58760;SDS011;44529;47.464;19.014;2022-07-25T07:47:36;4.43;;;3.80;;
58760;SDS011;44529;47.464;19.014;2022-07-25T07:50:38;4.25;;;3.67;;
58760;SDS011;44529;47.464;19.014;2022-07-25T07:53:41;5.05;;;4.03;;
58760;SDS011;44529;47.464;19.014;2022-07-25T07:57:01;5.07;;;3.90;;
58760;SDS011;44529;47.464;19.014;2022-07-25T08:00:04;4.03;;;3.72;;
58760;SDS011;44529;47.464;19.014;2022-07-25T08:03:16;5.37;;;3.45;;
58760;SDS011;44529;47.464;19.014;2022-07-25T08:06:21;5.60;;;3.75;;
58760;SDS011;44529;47.464;19.014;2022-07-25T08:09:24;7.85;;;3.37;;
58760;SDS011;44529;47.464;19.014;2022-07-25T08:12:28;3.92;;;3.62;;
58760;SDS011;44529;47.464;19.014;2022-07-25T08:15:30;4.60;;;3.40;;
58760;SDS011;44529;47.464;19.014;2022-07-25T08:18:33;4.90;;;3.72;;
58760;SDS011;44529;47.464;19.014;2022-07-25T08:21:35;3.95;;;3.55;;
58760;SDS011;44529;47.464;19.014;2022-07-25T08:24:37;7.75;;;3.85;;
58760;SDS011;44529;47.464;19.014;2022-07-25T08:27:39;3.80;;;3.40;;
58760;SDS011;44529;47.464;19.014;2022-07-25T08:30:42;4.18;;;3.67;;
58760;SDS011;44529;47.464;19.014;2022-07-25T08:33:44;5.18;;;3.80;;
58760;SDS011;44529;47.464;19.014;2022-07-25T08:36:47;6.97;;;3.92;;
58760;SDS011;44529;47.464;19.014;2022-07-25T08:39:49;7.37;;;3.83;;
58760;SDS011;44529;47.464;19.014;2022-07-25T08:42:53;3.62;;;3.33;;
58760;SDS011;44529;47.464;19.014;2022-07-25T08:45:55;6.35;;;4.00;;
58760;SDS011;44529;47.464;19.014;2022-07-25T08:49:01;5.28;;;3.83;;
58760;SDS011;44529;47.464;19.014;2022-07-25T08:52:05;4.78;;;3.80;;
58760;SDS011;44529;47.464;19.014;2022-07-25T08:55:10;6.15;;;3.85;;
58760;SDS011;44529;47.464;19.014;2022-07-25T08:58:17;4.12;;;3.72;;
58760;SDS011;44529;47.464;19.014;2022-07-25T09:01:20;6.32;;;3.80;;
58760;SDS011;44529;47.464;19.014;2022-07-25T09:04:22;5.90;;;3.53;;
58760;SDS011;44529;47.464;19.014;2022-07-25T09:07:37;3.78;;;3.47;;
58760;SDS011;44529;47.464;19.014;2022-07-25T09:10:44;4.20;;;3.80;;
58760;SDS011;44529;47.464;19.014;2022-07-25T09:13:58;6.47;;;3.92;;
58760;SDS011;44529;47.464;19.014;2022-07-25T09:17:06;4.18;;;3.78;;
58760;SDS011;44529;47.464;19.014;2022-07-25T09:20:35;6.22;;;3.70;;
58760;SDS011;44529;47.464;19.014;2022-07-25T09:23:44;4.97;;;3.60;;
58760;SDS011;44529;47.464;19.014;2022-07-25T09:26:47;7.82;;;3.70;;
58760;SDS011;44529;47.464;19.014;2022-07-25T09:29:51;4.00;;;3.42;;
58760;SDS011;44529;47.464;19.014;2022-07-25T09:33:00;4.30;;;3.50;;
58760;SDS011;44529;47.464;19.014;2022-07-25T09:36:08;5.78;;;3.85;;
58760;SDS011;44529;47.464;19.014;2022-07-25T09:39:11;8.52;;;3.42;;
58760;SDS011;44529;47.464;19.014;2022-07-25T09:45:21;7.37;;;3.60;;
58760;SDS011;44529;47.464;19.014;2022-07-25T09:48:24;5.50;;;3.90;;
58760;SDS011;44529;47.464;19.014;2022-07-25T09:51:27;7.05;;;3.53;;
58760;SDS011;44529;47.464;19.014;2022-07-25T09:54:29;3.95;;;3.58;;
58760;SDS011;44529;47.464;19.014;2022-07-25T09:57:33;6.35;;;3.80;;
58760;SDS011;44529;47.464;19.014;2022-07-25T10:00:35;4.32;;;3.72;;
58760;SDS011;44529;47.464;19.014;2022-07-25T10:07:11;4.05;;;3.60;;
58760;SDS011;44529;47.464;19.014;2022-07-25T10:10:24;6.65;;;4.18;;
58760;SDS011;44529;47.464;19.014;2022-07-25T10:13:29;5.62;;;3.37;;
58760;SDS011;44529;47.464;19.014;2022-07-25T10:16:43;4.55;;;3.60;;
58760;SDS011;44529;47.464;19.014;2022-07-25T10:19:47;4.15;;;3.75;;
58760;SDS011;44529;47.464;19.014;2022-07-25T10:22:56;4.80;;;3.72;;
58760;SDS011;44529;47.464;19.014;2022-07-25T10:26:00;4.22;;;3.80;;
58760;SDS011;44529;47.464;19.014;2022-07-25T10:29:09;6.32;;;3.58;;
58760;SDS011;44529;47.464;19.014;2022-07-25T10:32:12;4.97;;;3.50;;
58760;SDS011;44529;47.464;19.014;2022-07-25T10:35:15;5.28;;;3.95;;
58760;SDS011;44529;47.464;19.014;2022-07-25T10:38:26;7.22;;;3.30;;
58760;SDS011;44529;47.464;19.014;2022-07-25T10:41:29;7.50;;;3.50;;
58760;SDS011;44529;47.464;19.014;2022-07-25T10:44:38;4.00;;;3.60;;
58760;SDS011;44529;47.464;19.014;2022-07-25T10:47:50;5.37;;;3.30;;
58760;SDS011;44529;47.464;19.014;2022-07-25T10:50:59;8.30;;;4.93;;
58760;SDS011;44529;47.464;19.014;2022-07-25T10:54:14;5.10;;;3.90;;
58760;SDS011;44529;47.464;19.014;2022-07-25T10:57:18;4.60;;;3.60;;
58760;SDS011;44529;47.464;19.014;2022-07-25T11:00:20;3.50;;;3.20;;
58760;SDS011;44529;47.464;19.014;2022-07-25T11:03:22;4.50;;;3.53;;
58760;SDS011;44529;47.464;19.014;2022-07-25T11:06:38;3.65;;;3.20;;
58760;SDS011;44529;47.464;19.014;2022-07-25T11:09:54;4.40;;;3.30;;
58760;SDS011;44529;47.464;19.014;2022-07-25T11:12:59;3.50;;;3.20;;
58760;SDS011;44529;47.464;19.014;2022-07-25T11:16:02;3.40;;;3.10;;
58760;SDS011;44529;47.464;19.014;2022-07-25T11:19:14;5.07;;;3.50;;
58760;SDS011;44529;47.464;19.014;2022-07-25T11:22:20;5.97;;;3.37;;
58760;SDS011;44529;47.464;19.014;2022-07-25T11:25:23;5.03;;;3.33;;
58760;SDS011;44529;47.464;19.014;2022-07-25T11:28:35;4.90;;;4.10;;
58760;SDS011;44529;47.464;19.014;2022-07-25T11:32:07;3.87;;;3.15;;
58760;SDS011;44529;47.464;19.014;2022-07-25T11:35:12;6.97;;;2.90;;
58760;SDS011;44529;47.464;19.014;2022-07-25T11:38:16;3.83;;;3.25;;
58760;SDS011;44529;47.464;19.014;2022-07-25T11:41:26;4.28;;;3.45;;
58760;SDS011;44529;47.464;19.014;2022-07-25T11:44:32;4.25;;;3.83;;
58760;SDS011;44529;47.464;19.014;2022-07-25T11:47:41;5.55;;;3.28;;
58760;SDS011;44529;47.464;19.014;2022-07-25T11:50:44;6.32;;;3.65;;
58760;SDS011;44529;47.464;19.014;2022-07-25T11:53:48;3.33;;;3.10;;
58760;SDS011;44529;47.464;19.014;2022-07-25T11:56:52;4.18;;;3.35;;
58760;SDS011;44529;47.464;19.014;2022-07-25T11:59:54;8.52;;;3.62;;
58760;SDS011;44529;47.464;19.014;2022-07-25T12:03:07;4.53;;;3.42;;
58760;SDS011;44529;47.464;19.014;2022-07-25T12:06:20;4.15;;;3.05;;
58760;SDS011;44529;47.464;19.014;2022-07-25T12:09:30;3.50;;;3.20;;
58760;SDS011;44529;47.464;19.014;2022-07-25T12:12:40;6.60;;;3.17;;
58760;SDS011;44529;47.464;19.014;2022-07-25T12:15:51;4.12;;;3.22;;
58760;SDS011;44529;47.464;19.014;2022-07-25T12:18:55;7.18;;;3.65;;
58760;SDS011;44529;47.464;19.014;2022-07-25T12:21:57;7.12;;;3.50;;
58760;SDS011;44529;47.464;19.014;2022-07-25T12:24:59;6.87;;;3.20;;
58760;SDS011;44529;47.464;19.014;2022-07-25T12:28:01;3.20;;;2.97;;
58760;SDS011;44529;47.464;19.014;2022-07-25T12:31:05;3.60;;;2.95;;
58760;SDS011;44529;47.464;19.014;2022-07-25T12:34:07;3.22;;;2.92;;
58760;SDS011;44529;47.464;19.014;2022-07-25T12:37:10;4.62;;;3.55;;
58760;SDS011;44529;47.464;19.014;2022-07-25T12:40:13;3.50;;;3.10;;
58760;SDS011;44529;47.464;19.014;2022-07-25T12:43:17;4.10;;;2.75;;
58760;SDS011;44529;47.464;19.014;2022-07-25T12:46:19;7.35;;;3.17;;
58760;SDS011;44529;47.464;19.014;2022-07-25T12:49:22;4.00;;;3.00;;
58760;SDS011;44529;47.464;19.014;2022-07-25T12:52:24;3.65;;;3.35;;
58760;SDS011;44529;47.464;19.014;2022-07-25T12:55:27;5.15;;;3.25;;
58760;SDS011;44529;47.464;19.014;2022-07-25T12:58:29;7.22;;;2.80;;
58760;SDS011;44529;47.464;19.014;2022-07-25T13:01:32;4.97;;;3.45;;
58760;SDS011;44529;47.464;19.014;2022-07-25T13:04:34;4.28;;;3.12;;
58760;SDS011;44529;47.464;19.014;2022-07-25T13:07:36;3.70;;;3.10;;
58760;SDS011;44529;47.464;19.014;2022-07-25T13:10:39;3.05;;;2.80;;
58760;SDS011;44529;47.464;19.014;2022-07-25T13:13:41;4.85;;;3.00;;
58760;SDS011;44529;47.464;19.014;2022-07-25T13:16:44;3.22;;;3.03;;
58760;SDS011;44529;47.464;19.014;2022-07-25T13:19:47;4.22;;;3.10;;
58760;SDS011;44529;47.464;19.014;2022-07-25T13:22:49;5.85;;;2.95;;
58760;SDS011;44529;47.464;19.014;2022-07-25T13:25:52;4.45;;;3.08;;
58760;SDS011;44529;47.464;19.014;2022-07-25T13:28:54;6.68;;;3.15;;
58760;SDS011;44529;47.464;19.014;2022-07-25T13:32:01;6.65;;;3.08;;
58760;SDS011;44529;47.464;19.014;2022-07-25T13:35:04;4.12;;;3.20;;
58760;SDS011;44529;47.464;19.014;2022-07-25T13:38:08;5.15;;;3.30;;
58760;SDS011;44529;47.464;19.014;2022-07-25T13:41:12;3.95;;;3.30;;
58760;SDS011;44529;47.464;19.014;2022-07-25T13:44:15;3.67;;;3.00;;
58760;SDS011;44529;47.464;19.014;2022-07-25T13:47:18;4.32;;;3.17;;
58760;SDS011;44529;47.464;19.014;2022-07-25T13:50:20;4.62;;;2.90;;
58760;SDS011;44529;47.464;19.014;2022-07-25T13:53:22;3.17;;;2.87;;
58760;SDS011;44529;47.464;19.014;2022-07-25T13:56:31;3.30;;;2.80;;
58760;SDS011;44529;47.464;19.014;2022-07-25T13:59:34;3.40;;;2.60;;
58760;SDS011;44529;47.464;19.014;2022-07-25T14:02:37;4.45;;;3.03;;
58760;SDS011;44529;47.464;19.014;2022-07-25T14:05:39;5.60;;;3.65;;
58760;SDS011;44529;47.464;19.014;2022-07-25T14:08:41;3.33;;;3.00;;
58760;SDS011;44529;47.464;19.014;2022-07-25T14:11:44;3.00;;;2.80;;
58760;SDS011;44529;47.464;19.014;2022-07-25T14:14:46;7.95;;;3.25;;
58760;SDS011;44529;47.464;19.014;2022-07-25T14:17:49;3.33;;;2.97;;
58760;SDS011;44529;47.464;19.014;2022-07-25T14:20:51;7.28;;;3.03;;
58760;SDS011;44529;47.464;19.014;2022-07-25T14:23:56;5.35;;;2.95;;
58760;SDS011;44529;47.464;19.014;2022-07-25T14:26:58;5.53;;;3.30;;
58760;SDS011;44529;47.464;19.014;2022-07-25T14:30:02;3.60;;;3.40;;
58760;SDS011;44529;47.464;19.014;2022-07-25T14:33:05;3.05;;;2.85;;
58760;SDS011;44529;47.464;19.014;2022-07-25T14:36:08;3.22;;;2.85;;
58760;SDS011;44529;47.464;19.014;2022-07-25T14:39:10;3.53;;;3.22;;
58760;SDS011;44529;47.464;19.014;2022-07-25T14:42:13;4.62;;;3.17;;
58760;SDS011;44529;47.464;19.014;2022-07-25T14:45:15;5.95;;;3.00;;
58760;SDS011;44529;47.464;19.014;2022-07-25T14:48:19;4.25;;;2.95;;
58760;SDS011;44529;47.464;19.014;2022-07-25T14:51:22;3.53;;;3.22;;
58760;SDS011;44529;47.464;19.014;2022-07-25T14:54:25;5.70;;;3.15;;
58760;SDS011;44529;47.464;19.014;2022-07-25T14:57:29;4.28;;;3.10;;
58760;SDS011;44529;47.464;19.014;2022-07-25T15:00:31;4.53;;;2.90;;
58760;SDS011;44529;47.464;19.014;2022-07-25T15:03:35;4.62;;;3.15;;
58760;SDS011;44529;47.464;19.014;2022-07-25T15:06:37;3.72;;;3.17;;
58760;SDS011;44529;47.464;19.014;2022-07-25T15:09:40;4.78;;;2.97;;
58760;SDS011;44529;47.464;19.014;2022-07-25T15:12:42;4.00;;;3.00;;
58760;SDS011;44529;47.464;19.014;2022-07-25T15:15:44;5.45;;;3.30;;
58760;SDS011;44529;47.464;19.014;2022-07-25T15:18:47;6.32;;;3.17;;
58760;SDS011;44529;47.464;19.014;2022-07-25T15:22:09;3.47;;;2.85;;
58760;SDS011;44529;47.464;19.014;2022-07-25T15:25:12;4.28;;;3.15;;
58760;SDS011;44529;47.464;19.014;2022-07-25T15:28:35;4.75;;;3.22;;
58760;SDS011;44529;47.464;19.014;2022-07-25T15:31:39;5.12;;;3.10;;
58760;SDS011;44529;47.464;19.014;2022-07-25T15:34:41;4.30;;;2.80;;
58760;SDS011;44529;47.464;19.014;2022-07-25T15:37:43;3.95;;;2.97;;
58760;SDS011;44529;47.464;19.014;2022-07-25T15:40:45;6.40;;;3.17;;
58760;SDS011;44529;47.464;19.014;2022-07-25T15:43:48;3.28;;;2.97;;
58760;SDS011;44529;47.464;19.014;2022-07-25T15:46:50;4.90;;;2.80;;
58760;SDS011;44529;47.464;19.014;2022-07-25T15:49:53;2.95;;;2.75;;
58760;SDS011;44529;47.464;19.014;2022-07-25T15:52:55;3.40;;;3.10;;
58760;SDS011;44529;47.464;19.014;2022-07-25T15:55:58;4.43;;;2.90;;
58760;SDS011;44529;47.464;19.014;2022-07-25T15:59:00;6.93;;;3.83;;
58760;SDS011;44529;47.464;19.014;2022-07-25T16:02:02;3.92;;;2.83;;
58760;SDS011;44529;47.464;19.014;2022-07-25T16:05:09;4.53;;;3.22;;
58760;SDS011;44529;47.464;19.014;2022-07-25T16:08:11;4.05;;;3.05;;
58760;SDS011;44529;47.464;19.014;2022-07-25T16:11:14;5.53;;;3.47;;
58760;SDS011;44529;47.464;19.014;2022-07-25T16:14:16;3.65;;;3.28;;
58760;SDS011;44529;47.464;19.014;2022-07-25T16:17:19;4.85;;;3.33;;
58760;SDS011;44529;47.464;19.014;2022-07-25T16:20:21;4.57;;;3.28;;
58760;SDS011;44529;47.464;19.014;2022-07-25T16:23:24;3.80;;;3.30;;
58760;SDS011;44529;47.464;19.014;2022-07-25T16:26:28;3.72;;;3.30;;
58760;SDS011;44529;47.464;19.014;2022-07-25T16:29:31;5.07;;;3.20;;
58760;SDS011;44529;47.464;19.014;2022-07-25T16:32:33;3.37;;;3.17;;
58760;SDS011;44529;47.464;19.014;2022-07-25T16:35:36;3.97;;;3.00;;
58760;SDS011;44529;47.464;19.014;2022-07-25T16:38:38;3.12;;;2.83;;
58760;SDS011;44529;47.464;19.014;2022-07-25T16:41:41;4.10;;;3.08;;
58760;SDS011;44529;47.464;19.014;2022-07-25T16:44:44;3.97;;;3.35;;
58760;SDS011;44529;47.464;19.014;2022-07-25T16:47:48;5.53;;;3.33;;
58760;SDS011;44529;47.464;19.014;2022-07-25T16:50:50;3.37;;;3.10;;
58760;SDS011;44529;47.464;19.014;2022-07-25T16:53:53;3.95;;;3.50;;
58760;SDS011;44529;47.464;19.014;2022-07-25T16:56:56;3.42;;;3.08;;
58760;SDS011;44529;47.464;19.014;2022-07-25T17:00:01;3.03;;;2.72;;
58760;SDS011;44529;47.464;19.014;2022-07-25T17:03:03;4.37;;;3.20;;
58760;SDS011;44529;47.464;19.014;2022-07-25T17:06:06;3.03;;;2.80;;
58760;SDS011;44529;47.464;19.014;2022-07-25T17:09:09;3.87;;;3.05;;
58760;SDS011;44529;47.464;19.014;2022-07-25T17:12:11;5.43;;;3.08;;
58760;SDS011;44529;47.464;19.014;2022-07-25T17:15:14;3.50;;;3.20;;
58760;SDS011;44529;47.464;19.014;2022-07-25T17:18:16;3.15;;;2.87;;
58760;SDS011;44529;47.464;19.014;2022-07-25T17:21:18;8.18;;;3.15;;
58760;SDS011;44529;47.464;19.014;2022-07-25T17:24:22;4.37;;;3.28;;
58760;SDS011;44529;47.464;19.014;2022-07-25T17:27:24;4.43;;;2.85;;
58760;SDS011;44529;47.464;19.014;2022-07-25T17:30:27;7.20;;;3.15;;
58760;SDS011;44529;47.464;19.014;2022-07-25T17:33:29;4.03;;;3.08;;
58760;SDS011;44529;47.464;19.014;2022-07-25T17:36:32;5.90;;;3.22;;
58760;SDS011;44529;47.464;19.014;2022-07-25T17:39:34;3.58;;;2.95;;
58760;SDS011;44529;47.464;19.014;2022-07-25T17:42:37;6.12;;;3.00;;
58760;SDS011;44529;47.464;19.014;2022-07-25T17:45:45;3.35;;;3.10;;
58760;SDS011;44529;47.464;19.014;2022-07-25T17:48:48;6.03;;;3.30;;
58760;SDS011;44529;47.464;19.014;2022-07-25T17:51:50;4.12;;;3.40;;
58760;SDS011;44529;47.464;19.014;2022-07-25T17:54:53;7.18;;;3.35;;
58760;SDS011;44529;47.464;19.014;2022-07-25T17:57:56;3.92;;;3.22;;
58760;SDS011;44529;47.464;19.014;2022-07-25T18:01:00;5.80;;;3.25;;
58760;SDS011;44529;47.464;19.014;2022-07-25T18:04:08;5.28;;;3.10;;
58760;SDS011;44529;47.464;19.014;2022-07-25T18:07:10;3.35;;;3.00;;
58760;SDS011;44529;47.464;19.014;2022-07-25T18:10:13;7.43;;;3.53;;
58760;SDS011;44529;47.464;19.014;2022-07-25T18:13:20;5.85;;;3.12;;
58760;SDS011;44529;47.464;19.014;2022-07-25T18:16:23;9.20;;;3.60;;
58760;SDS011;44529;47.464;19.014;2022-07-25T18:19:25;6.72;;;3.45;;